sensor_id;sensor_type;location;lat;lon;timestamp;P1;durP1;ratioP1;P2;durP2;ratioP2
7519;SDS011;3801;48.876;10.184;2023-02-12T00:03:49;25.47;;;15.63;;
7519;SDS011;3801;48.876;10.184;2023-02-12T00:08:53;25.53;;;15.37;;
7519;SDS011;3801;48.876;10.184;2023-02-12T00:13:58;28.53;;;16.57;;
7519;SDS011;3801;48.876;10.184;2023-02-12T00:19:04;29.33;;;15.67;;
7519;SDS011;3801;48.876;10.184;2023-02-12T00:24:07;31.03;;;14.90;;
7519;SDS011;3801;48.876;10.184;2023-02-12T00:29:12;36.57;;;19.33;;
7519;SDS011;3801;48.876;10.184;2023-02-12T00:34:15;40.13;;;19.77;;
7519;SDS011;3801;48.876;10.184;2023-02-12T00:39:19;30.47;;;16.87;;
7519;SDS011;3801;48.876;10.184;2023-02-12T00:44:23;31.33;;;16.80;;
7519;SDS011;3801;48.876;10.184;2023-02-12T00:49:27;30.97;;;16.87;;
7519;SDS011;3801;48.876;10.184;2023-02-12T00:54:30;29.17;;;16.00;;
7519;SDS011;3801;48.876;10.184;2023-02-12T00:59:35;36.33;;;18.60;;
7519;SDS011;3801;48.876;10.184;2023-02-12T01:04:40;36.73;;;19.50;;
7519;SDS011;3801;48.876;10.184;2023-02-12T01:09:44;40.23;;;20.90;;
7519;SDS011;3801;48.876;10.184;2023-02-12T01:14:49;37.50;;;20.37;;
7519;SDS011;3801;48.876;10.184;2023-02-12T01:19:55;37.13;;;21.03;;
7519;SDS011;3801;48.876;10.184;2023-02-12T01:24:58;35.83;;;19.33;;
7519;SDS011;3801;48.876;10.184;2023-02-12T01:30:03;39.20;;;19.27;;
7519;SDS011;3801;48.876;10.184;2023-02-12T01:35:07;35.70;;;18.07;;
7519;SDS011;3801;48.876;10.184;2023-02-12T01:40:14;32.67;;;18.83;;
7519;SDS011;3801;48.876;10.184;2023-02-12T01:45:35;38.73;;;19.37;;
7519;SDS011;3801;48.876;10.184;2023-02-12T01:50:43;37.37;;;20.27;;
7519;SDS011;3801;48.876;10.184;2023-02-12T01:55:48;39.70;;;19.47;;
7519;SDS011;3801;48.876;10.184;2023-02-12T02:00:52;38.23;;;20.37;;
7519;SDS011;3801;48.876;10.184;2023-02-12T02:05:58;40.83;;;20.00;;
7519;SDS011;3801;48.876;10.184;2023-02-12T02:11:03;38.10;;;20.87;;
7519;SDS011;3801;48.876;10.184;2023-02-12T02:16:28;34.27;;;19.43;;
7519;SDS011;3801;48.876;10.184;2023-02-12T02:21:48;42.90;;;20.70;;
7519;SDS011;3801;48.876;10.184;2023-02-12T02:26:56;35.90;;;18.70;;
7519;SDS011;3801;48.876;10.184;2023-02-12T02:32:06;39.60;;;19.77;;
7519;SDS011;3801;48.876;10.184;2023-02-12T02:37:12;47.33;;;19.67;;
7519;SDS011;3801;48.876;10.184;2023-02-12T02:42:17;39.70;;;18.20;;
7519;SDS011;3801;48.876;10.184;2023-02-12T02:47:28;40.83;;;19.73;;
7519;SDS011;3801;48.876;10.184;2023-02-12T02:52:35;46.87;;;21.00;;
7519;SDS011;3801;48.876;10.184;2023-02-12T02:57:40;42.57;;;22.37;;
7519;SDS011;3801;48.876;10.184;2023-02-12T03:02:47;39.37;;;21.93;;
7519;SDS011;3801;48.876;10.184;2023-02-12T03:07:52;38.50;;;19.47;;
7519;SDS011;3801;48.876;10.184;2023-02-12T03:12:57;48.30;;;24.20;;
7519;SDS011;3801;48.876;10.184;2023-02-12T03:18:04;44.73;;;22.07;;
7519;SDS011;3801;48.876;10.184;2023-02-12T03:23:10;48.97;;;23.40;;
7519;SDS011;3801;48.876;10.184;2023-02-12T03:28:15;49.03;;;23.97;;
7519;SDS011;3801;48.876;10.184;2023-02-12T03:33:24;51.70;;;25.63;;
7519;SDS011;3801;48.876;10.184;2023-02-12T03:38:33;50.97;;;25.13;;
7519;SDS011;3801;48.876;10.184;2023-02-12T03:43:40;45.80;;;22.53;;
7519;SDS011;3801;48.876;10.184;2023-02-12T03:48:49;56.60;;;24.13;;
7519;SDS011;3801;48.876;10.184;2023-02-12T03:53:59;49.03;;;22.97;;
7519;SDS011;3801;48.876;10.184;2023-02-12T03:59:03;52.63;;;23.40;;
7519;SDS011;3801;48.876;10.184;2023-02-12T04:04:09;54.93;;;24.17;;
7519;SDS011;3801;48.876;10.184;2023-02-12T04:09:13;55.50;;;26.30;;
7519;SDS011;3801;48.876;10.184;2023-02-12T04:14:19;51.87;;;25.87;;
7519;SDS011;3801;48.876;10.184;2023-02-12T04:19:29;51.87;;;25.37;;
7519;SDS011;3801;48.876;10.184;2023-02-12T04:24:36;59.30;;;26.57;;
7519;SDS011;3801;48.876;10.184;2023-02-12T04:29:46;57.13;;;26.43;;
7519;SDS011;3801;48.876;10.184;2023-02-12T04:34:54;66.23;;;26.13;;
7519;SDS011;3801;48.876;10.184;2023-02-12T04:39:59;60.70;;;25.97;;
7519;SDS011;3801;48.876;10.184;2023-02-12T04:45:05;59.43;;;27.67;;
7519;SDS011;3801;48.876;10.184;2023-02-12T04:50:13;57.87;;;27.33;;
7519;SDS011;3801;48.876;10.184;2023-02-12T04:55:16;60.47;;;28.97;;
7519;SDS011;3801;48.876;10.184;2023-02-12T05:00:19;61.77;;;27.10;;
7519;SDS011;3801;48.876;10.184;2023-02-12T05:05:24;58.63;;;25.33;;
7519;SDS011;3801;48.876;10.184;2023-02-12T05:10:28;71.47;;;28.10;;
7519;SDS011;3801;48.876;10.184;2023-02-12T05:15:31;62.07;;;26.50;;
7519;SDS011;3801;48.876;10.184;2023-02-12T05:20:36;64.90;;;27.63;;
7519;SDS011;3801;48.876;10.184;2023-02-12T05:25:39;81.47;;;30.53;;
7519;SDS011;3801;48.876;10.184;2023-02-12T05:30:42;88.90;;;32.40;;
7519;SDS011;3801;48.876;10.184;2023-02-12T05:35:47;87.57;;;31.53;;
7519;SDS011;3801;48.876;10.184;2023-02-12T05:40:50;90.33;;;30.47;;
7519;SDS011;3801;48.876;10.184;2023-02-12T05:45:54;72.90;;;28.80;;
7519;SDS011;3801;48.876;10.184;2023-02-12T05:51:01;82.67;;;28.97;;
7519;SDS011;3801;48.876;10.184;2023-02-12T05:56:09;84.83;;;30.17;;
7519;SDS011;3801;48.876;10.184;2023-02-12T06:01:14;84.53;;;30.10;;
7519;SDS011;3801;48.876;10.184;2023-02-12T06:06:19;72.57;;;27.40;;
7519;SDS011;3801;48.876;10.184;2023-02-12T06:11:23;53.37;;;21.53;;
7519;SDS011;3801;48.876;10.184;2023-02-12T06:16:27;79.17;;;28.27;;
7519;SDS011;3801;48.876;10.184;2023-02-12T06:21:32;58.57;;;23.90;;
7519;SDS011;3801;48.876;10.184;2023-02-12T06:26:36;36.70;;;16.00;;
7519;SDS011;3801;48.876;10.184;2023-02-12T06:31:39;48.50;;;19.67;;
7519;SDS011;3801;48.876;10.184;2023-02-12T06:36:46;40.13;;;17.83;;
7519;SDS011;3801;48.876;10.184;2023-02-12T06:41:49;55.53;;;21.50;;
7519;SDS011;3801;48.876;10.184;2023-02-12T06:46:53;64.30;;;23.17;;
7519;SDS011;3801;48.876;10.184;2023-02-12T06:52:00;66.37;;;28.73;;
7519;SDS011;3801;48.876;10.184;2023-02-12T06:57:04;48.47;;;20.27;;
7519;SDS011;3801;48.876;10.184;2023-02-12T07:02:08;54.27;;;20.77;;
7519;SDS011;3801;48.876;10.184;2023-02-12T07:07:12;59.57;;;21.03;;
7519;SDS011;3801;48.876;10.184;2023-02-12T07:12:16;33.40;;;15.33;;
7519;SDS011;3801;48.876;10.184;2023-02-12T07:17:19;54.50;;;22.30;;
7519;SDS011;3801;48.876;10.184;2023-02-12T07:22:24;36.00;;;15.73;;
7519;SDS011;3801;48.876;10.184;2023-02-12T07:27:27;38.77;;;18.03;;
7519;SDS011;3801;48.876;10.184;2023-02-12T07:32:30;44.90;;;17.97;;
7519;SDS011;3801;48.876;10.184;2023-02-12T07:37:35;44.77;;;18.33;;
7519;SDS011;3801;48.876;10.184;2023-02-12T07:42:39;54.03;;;20.70;;
7519;SDS011;3801;48.876;10.184;2023-02-12T07:47:43;61.40;;;24.40;;
7519;SDS011;3801;48.876;10.184;2023-02-12T07:52:48;63.50;;;23.20;;
7519;SDS011;3801;48.876;10.184;2023-02-12T07:57:52;56.47;;;23.97;;
7519;SDS011;3801;48.876;10.184;2023-02-12T08:02:55;67.33;;;27.47;;
7519;SDS011;3801;48.876;10.184;2023-02-12T08:08:02;86.33;;;34.03;;
7519;SDS011;3801;48.876;10.184;2023-02-12T08:13:05;82.40;;;30.17;;
7519;SDS011;3801;48.876;10.184;2023-02-12T08:18:09;76.17;;;30.73;;
7519;SDS011;3801;48.876;10.184;2023-02-12T08:23:16;57.10;;;24.47;;
7519;SDS011;3801;48.876;10.184;2023-02-12T08:28:19;63.63;;;27.53;;
7519;SDS011;3801;48.876;10.184;2023-02-12T08:33:24;62.47;;;25.63;;
7519;SDS011;3801;48.876;10.184;2023-02-12T08:38:28;68.70;;;27.33;;
7519;SDS011;3801;48.876;10.184;2023-02-12T08:43:37;56.33;;;25.00;;
7519;SDS011;3801;48.876;10.184;2023-02-12T08:48:41;74.27;;;28.80;;
7519;SDS011;3801;48.876;10.184;2023-02-12T08:53:47;66.70;;;27.37;;
7519;SDS011;3801;48.876;10.184;2023-02-12T08:58:50;77.37;;;30.60;;
7519;SDS011;3801;48.876;10.184;2023-02-12T09:03:54;71.30;;;29.87;;
7519;SDS011;3801;48.876;10.184;2023-02-12T09:08:59;54.30;;;22.93;;
7519;SDS011;3801;48.876;10.184;2023-02-12T09:14:02;44.90;;;20.77;;
7519;SDS011;3801;48.876;10.184;2023-02-12T09:19:07;50.93;;;23.03;;
7519;SDS011;3801;48.876;10.184;2023-02-12T09:24:12;47.07;;;21.77;;
7519;SDS011;3801;48.876;10.184;2023-02-12T09:29:15;41.33;;;20.07;;
7519;SDS011;3801;48.876;10.184;2023-02-12T09:34:19;47.50;;;20.90;;
7519;SDS011;3801;48.876;10.184;2023-02-12T09:39:24;22.07;;;11.57;;
7519;SDS011;3801;48.876;10.184;2023-02-12T09:44:31;18.53;;;10.03;;
7519;SDS011;3801;48.876;10.184;2023-02-12T09:49:44;5.53;;;3.50;;
7519;SDS011;3801;48.876;10.184;2023-02-12T09:54:52;10.03;;;5.43;;
7519;SDS011;3801;48.876;10.184;2023-02-12T09:59:57;6.73;;;4.40;;
7519;SDS011;3801;48.876;10.184;2023-02-12T10:05:00;6.13;;;5.00;;
7519;SDS011;3801;48.876;10.184;2023-02-12T10:10:09;3.53;;;2.90;;
7519;SDS011;3801;48.876;10.184;2023-02-12T10:15:19;3.73;;;1.83;;
7519;SDS011;3801;48.876;10.184;2023-02-12T10:20:35;2.63;;;2.37;;
7519;SDS011;3801;48.876;10.184;2023-02-12T10:25:44;4.10;;;3.20;;
7519;SDS011;3801;48.876;10.184;2023-02-12T10:30:54;10.63;;;5.90;;
7519;SDS011;3801;48.876;10.184;2023-02-12T10:36:01;9.10;;;6.00;;
7519;SDS011;3801;48.876;10.184;2023-02-12T10:41:07;10.30;;;6.53;;
7519;SDS011;3801;48.876;10.184;2023-02-12T10:46:13;13.20;;;8.30;;
7519;SDS011;3801;48.876;10.184;2023-02-12T10:51:27;18.80;;;10.53;;
7519;SDS011;3801;48.876;10.184;2023-02-12T10:56:35;18.73;;;11.40;;
7519;SDS011;3801;48.876;10.184;2023-02-12T11:01:39;19.00;;;9.97;;
7519;SDS011;3801;48.876;10.184;2023-02-12T11:06:46;22.53;;;12.60;;
7519;SDS011;3801;48.876;10.184;2023-02-12T11:11:59;17.50;;;9.77;;
7519;SDS011;3801;48.876;10.184;2023-02-12T11:17:02;9.43;;;5.23;;
7519;SDS011;3801;48.876;10.184;2023-02-12T11:22:07;7.70;;;4.57;;
7519;SDS011;3801;48.876;10.184;2023-02-12T11:27:19;11.77;;;6.53;;
7519;SDS011;3801;48.876;10.184;2023-02-12T11:32:25;9.40;;;5.00;;
7519;SDS011;3801;48.876;10.184;2023-02-12T11:37:29;9.67;;;5.77;;
7519;SDS011;3801;48.876;10.184;2023-02-12T11:42:36;10.10;;;5.30;;
7519;SDS011;3801;48.876;10.184;2023-02-12T11:47:40;9.17;;;4.87;;
7519;SDS011;3801;48.876;10.184;2023-02-12T11:52:46;10.10;;;5.30;;
7519;SDS011;3801;48.876;10.184;2023-02-12T11:57:53;10.30;;;5.53;;
7519;SDS011;3801;48.876;10.184;2023-02-12T12:02:57;9.53;;;5.67;;
7519;SDS011;3801;48.876;10.184;2023-02-12T12:08:05;6.23;;;3.40;;
7519;SDS011;3801;48.876;10.184;2023-02-12T12:13:12;5.80;;;3.87;;
7519;SDS011;3801;48.876;10.184;2023-02-12T12:18:20;4.50;;;2.67;;
7519;SDS011;3801;48.876;10.184;2023-02-12T12:23:56;12.43;;;7.63;;
7519;SDS011;3801;48.876;10.184;2023-02-12T12:29:03;8.30;;;5.73;;
7519;SDS011;3801;48.876;10.184;2023-02-12T12:34:10;10.87;;;6.37;;
7519;SDS011;3801;48.876;10.184;2023-02-12T12:39:15;9.17;;;5.40;;
7519;SDS011;3801;48.876;10.184;2023-02-12T12:44:25;14.43;;;7.37;;
7519;SDS011;3801;48.876;10.184;2023-02-12T12:49:50;7.47;;;4.17;;
7519;SDS011;3801;48.876;10.184;2023-02-12T12:55:10;5.80;;;3.57;;
7519;SDS011;3801;48.876;10.184;2023-02-12T13:00:33;4.60;;;3.13;;
7519;SDS011;3801;48.876;10.184;2023-02-12T13:11:05;4.27;;;3.33;;
7519;SDS011;3801;48.876;10.184;2023-02-12T13:16:16;6.60;;;3.93;;
7519;SDS011;3801;48.876;10.184;2023-02-12T13:21:26;14.27;;;6.43;;
7519;SDS011;3801;48.876;10.184;2023-02-12T13:26:32;13.20;;;6.50;;
7519;SDS011;3801;48.876;10.184;2023-02-12T13:31:43;14.67;;;6.97;;
7519;SDS011;3801;48.876;10.184;2023-02-12T13:36:47;11.87;;;6.70;;
7519;SDS011;3801;48.876;10.184;2023-02-12T13:41:53;16.50;;;7.20;;
7519;SDS011;3801;48.876;10.184;2023-02-12T13:47:04;15.50;;;7.93;;
7519;SDS011;3801;48.876;10.184;2023-02-12T13:52:10;13.90;;;7.63;;
7519;SDS011;3801;48.876;10.184;2023-02-12T13:57:16;12.90;;;5.83;;
7519;SDS011;3801;48.876;10.184;2023-02-12T14:07:43;11.40;;;5.77;;
7519;SDS011;3801;48.876;10.184;2023-02-12T14:12:47;11.97;;;6.30;;
7519;SDS011;3801;48.876;10.184;2023-02-12T14:17:54;9.47;;;6.00;;
7519;SDS011;3801;48.876;10.184;2023-02-12T14:23:00;11.23;;;6.80;;
7519;SDS011;3801;48.876;10.184;2023-02-12T14:28:05;13.10;;;6.70;;
7519;SDS011;3801;48.876;10.184;2023-02-12T14:33:15;16.77;;;8.70;;
7519;SDS011;3801;48.876;10.184;2023-02-12T14:43:50;16.53;;;8.20;;
7519;SDS011;3801;48.876;10.184;2023-02-12T14:49:15;12.30;;;7.10;;
7519;SDS011;3801;48.876;10.184;2023-02-12T14:54:20;15.23;;;7.33;;
7519;SDS011;3801;48.876;10.184;2023-02-12T14:59:31;15.87;;;7.80;;
7519;SDS011;3801;48.876;10.184;2023-02-12T15:04:36;15.53;;;7.50;;
7519;SDS011;3801;48.876;10.184;2023-02-12T15:09:42;16.60;;;9.60;;
7519;SDS011;3801;48.876;10.184;2023-02-12T15:14:49;18.33;;;9.03;;
7519;SDS011;3801;48.876;10.184;2023-02-12T15:19:54;33.30;;;15.17;;
7519;SDS011;3801;48.876;10.184;2023-02-12T15:25:15;46.07;;;24.77;;
7519;SDS011;3801;48.876;10.184;2023-02-12T15:30:21;30.13;;;16.53;;
7519;SDS011;3801;48.876;10.184;2023-02-12T15:35:28;22.10;;;11.10;;
7519;SDS011;3801;48.876;10.184;2023-02-12T15:40:31;25.90;;;13.43;;
7519;SDS011;3801;48.876;10.184;2023-02-12T15:45:36;22.00;;;9.43;;
7519;SDS011;3801;48.876;10.184;2023-02-12T15:50:45;18.83;;;10.13;;
7519;SDS011;3801;48.876;10.184;2023-02-12T15:55:48;15.67;;;8.40;;
7519;SDS011;3801;48.876;10.184;2023-02-12T16:00:54;17.00;;;8.77;;
7519;SDS011;3801;48.876;10.184;2023-02-12T16:06:02;19.87;;;9.27;;
7519;SDS011;3801;48.876;10.184;2023-02-12T16:11:06;17.23;;;8.63;;
7519;SDS011;3801;48.876;10.184;2023-02-12T16:16:22;68.80;;;32.30;;
7519;SDS011;3801;48.876;10.184;2023-02-12T16:21:25;21.60;;;12.17;;
7519;SDS011;3801;48.876;10.184;2023-02-12T16:26:30;23.47;;;14.40;;
7519;SDS011;3801;48.876;10.184;2023-02-12T16:31:35;23.10;;;11.63;;
7519;SDS011;3801;48.876;10.184;2023-02-12T16:36:44;46.73;;;21.37;;
7519;SDS011;3801;48.876;10.184;2023-02-12T16:41:50;39.23;;;17.73;;
7519;SDS011;3801;48.876;10.184;2023-02-12T16:46:56;18.90;;;12.00;;
7519;SDS011;3801;48.876;10.184;2023-02-12T16:52:17;20.47;;;9.97;;
7519;SDS011;3801;48.876;10.184;2023-02-12T16:57:20;22.00;;;11.73;;
7519;SDS011;3801;48.876;10.184;2023-02-12T17:02:25;23.00;;;10.43;;
7519;SDS011;3801;48.876;10.184;2023-02-12T17:07:29;15.30;;;8.83;;
7519;SDS011;3801;48.876;10.184;2023-02-12T17:12:32;14.43;;;8.20;;
7519;SDS011;3801;48.876;10.184;2023-02-12T17:17:37;14.50;;;7.47;;
7519;SDS011;3801;48.876;10.184;2023-02-12T17:22:41;13.10;;;7.40;;
7519;SDS011;3801;48.876;10.184;2023-02-12T17:27:47;15.80;;;9.27;;
7519;SDS011;3801;48.876;10.184;2023-02-12T17:32:52;19.47;;;10.10;;
7519;SDS011;3801;48.876;10.184;2023-02-12T17:37:55;21.70;;;10.57;;
7519;SDS011;3801;48.876;10.184;2023-02-12T17:42:59;17.27;;;8.87;;
7519;SDS011;3801;48.876;10.184;2023-02-12T17:48:04;18.63;;;9.67;;
7519;SDS011;3801;48.876;10.184;2023-02-12T17:53:08;12.73;;;6.90;;
7519;SDS011;3801;48.876;10.184;2023-02-12T17:58:12;13.63;;;7.00;;
7519;SDS011;3801;48.876;10.184;2023-02-12T18:03:17;9.70;;;5.80;;
7519;SDS011;3801;48.876;10.184;2023-02-12T18:08:20;14.60;;;7.10;;
7519;SDS011;3801;48.876;10.184;2023-02-12T18:13:24;17.90;;;9.80;;
7519;SDS011;3801;48.876;10.184;2023-02-12T18:18:29;9.80;;;5.37;;
7519;SDS011;3801;48.876;10.184;2023-02-12T18:23:34;16.13;;;8.97;;
7519;SDS011;3801;48.876;10.184;2023-02-12T18:28:41;15.63;;;8.10;;
7519;SDS011;3801;48.876;10.184;2023-02-12T18:33:46;15.50;;;8.80;;
7519;SDS011;3801;48.876;10.184;2023-02-12T18:38:50;15.90;;;8.30;;
7519;SDS011;3801;48.876;10.184;2023-02-12T18:43:54;16.63;;;8.37;;
7519;SDS011;3801;48.876;10.184;2023-02-12T18:49:01;14.90;;;8.10;;
7519;SDS011;3801;48.876;10.184;2023-02-12T18:54:06;13.63;;;8.57;;
7519;SDS011;3801;48.876;10.184;2023-02-12T18:59:10;16.63;;;8.80;;
7519;SDS011;3801;48.876;10.184;2023-02-12T19:04:16;18.93;;;9.70;;
7519;SDS011;3801;48.876;10.184;2023-02-12T19:09:21;23.43;;;11.30;;
7519;SDS011;3801;48.876;10.184;2023-02-12T19:14:25;85.60;;;36.23;;
7519;SDS011;3801;48.876;10.184;2023-02-12T19:19:31;17.63;;;9.80;;
7519;SDS011;3801;48.876;10.184;2023-02-12T19:24:35;22.33;;;10.93;;
7519;SDS011;3801;48.876;10.184;2023-02-12T19:29:47;25.20;;;12.30;;
7519;SDS011;3801;48.876;10.184;2023-02-12T19:34:52;16.80;;;9.77;;
7519;SDS011;3801;48.876;10.184;2023-02-12T19:39:56;18.53;;;10.53;;
7519;SDS011;3801;48.876;10.184;2023-02-12T19:44:59;19.07;;;10.33;;
7519;SDS011;3801;48.876;10.184;2023-02-12T19:50:05;19.23;;;10.67;;
7519;SDS011;3801;48.876;10.184;2023-02-12T19:55:08;19.13;;;10.57;;
7519;SDS011;3801;48.876;10.184;2023-02-12T20:00:12;17.17;;;10.70;;
7519;SDS011;3801;48.876;10.184;2023-02-12T20:05:17;48.40;;;26.00;;
7519;SDS011;3801;48.876;10.184;2023-02-12T20:10:20;18.27;;;9.50;;
7519;SDS011;3801;48.876;10.184;2023-02-12T20:15:24;16.43;;;10.13;;
7519;SDS011;3801;48.876;10.184;2023-02-12T20:20:29;18.53;;;11.03;;
7519;SDS011;3801;48.876;10.184;2023-02-12T20:25:32;17.07;;;9.90;;
7519;SDS011;3801;48.876;10.184;2023-02-12T20:30:37;17.63;;;9.67;;
7519;SDS011;3801;48.876;10.184;2023-02-12T20:35:42;20.13;;;9.70;;
7519;SDS011;3801;48.876;10.184;2023-02-12T20:40:46;19.53;;;10.67;;
7519;SDS011;3801;48.876;10.184;2023-02-12T20:45:49;17.77;;;10.07;;
7519;SDS011;3801;48.876;10.184;2023-02-12T20:50:54;16.43;;;9.27;;
7519;SDS011;3801;48.876;10.184;2023-02-12T20:56:01;16.97;;;8.70;;
7519;SDS011;3801;48.876;10.184;2023-02-12T21:01:05;15.73;;;9.40;;
7519;SDS011;3801;48.876;10.184;2023-02-12T21:06:10;14.60;;;8.33;;
7519;SDS011;3801;48.876;10.184;2023-02-12T21:11:15;15.93;;;9.50;;
7519;SDS011;3801;48.876;10.184;2023-02-12T21:16:20;16.87;;;10.10;;
7519;SDS011;3801;48.876;10.184;2023-02-12T21:21:25;16.13;;;10.07;;
7519;SDS011;3801;48.876;10.184;2023-02-12T21:26:30;14.60;;;8.70;;
7519;SDS011;3801;48.876;10.184;2023-02-12T21:31:35;20.60;;;10.10;;
7519;SDS011;3801;48.876;10.184;2023-02-12T21:36:40;16.43;;;9.47;;
7519;SDS011;3801;48.876;10.184;2023-02-12T21:41:45;17.97;;;10.03;;
7519;SDS011;3801;48.876;10.184;2023-02-12T21:46:49;17.27;;;8.90;;
7519;SDS011;3801;48.876;10.184;2023-02-12T21:51:54;13.90;;;8.37;;
7519;SDS011;3801;48.876;10.184;2023-02-12T21:56:58;17.37;;;9.63;;
7519;SDS011;3801;48.876;10.184;2023-02-12T22:02:01;20.10;;;10.73;;
7519;SDS011;3801;48.876;10.184;2023-02-12T22:07:07;18.97;;;10.80;;
7519;SDS011;3801;48.876;10.184;2023-02-12T22:12:11;18.83;;;10.67;;
7519;SDS011;3801;48.876;10.184;2023-02-12T22:17:15;17.80;;;9.47;;
7519;SDS011;3801;48.876;10.184;2023-02-12T22:22:19;23.00;;;10.67;;
7519;SDS011;3801;48.876;10.184;2023-02-12T22:27:23;21.70;;;11.37;;
7519;SDS011;3801;48.876;10.184;2023-02-12T22:32:26;19.27;;;11.00;;
7519;SDS011;3801;48.876;10.184;2023-02-12T22:37:31;21.60;;;11.13;;
7519;SDS011;3801;48.876;10.184;2023-02-12T22:42:34;22.27;;;13.27;;
7519;SDS011;3801;48.876;10.184;2023-02-12T22:47:38;28.40;;;13.77;;
7519;SDS011;3801;48.876;10.184;2023-02-12T22:52:43;28.33;;;14.10;;
7519;SDS011;3801;48.876;10.184;2023-02-12T22:57:46;27.23;;;13.87;;
7519;SDS011;3801;48.876;10.184;2023-02-12T23:02:49;28.37;;;14.30;;
7519;SDS011;3801;48.876;10.184;2023-02-12T23:07:54;29.50;;;14.40;;
7519;SDS011;3801;48.876;10.184;2023-02-12T23:12:57;29.90;;;14.37;;
7519;SDS011;3801;48.876;10.184;2023-02-12T23:18:01;26.03;;;11.53;;
7519;SDS011;3801;48.876;10.184;2023-02-12T23:23:06;32.23;;;14.60;;
7519;SDS011;3801;48.876;10.184;2023-02-12T23:28:09;28.90;;;14.07;;
7519;SDS011;3801;48.876;10.184;2023-02-12T23:33:13;30.93;;;14.93;;
7519;SDS011;3801;48.876;10.184;2023-02-12T23:38:17;26.13;;;11.13;;
7519;SDS011;3801;48.876;10.184;2023-02-12T23:43:21;21.43;;;10.80;;
7519;SDS011;3801;48.876;10.184;2023-02-12T23:48:24;27.40;;;13.80;;
7519;SDS011;3801;48.876;10.184;2023-02-12T23:53:29;24.93;;;12.70;;
7519;SDS011;3801;48.876;10.184;2023-02-12T23:58:32;27.57;;;13.77;;
